PGT4BK LTAC-LTCS
Flight info
| Callsign | PGT4BK |
|---|---|
| Flight time | 1h 2m |
| Altitude | 37000 |
| Route | GOBIT UG8 GEM UW73 ERH/N0385F270 W103 BADEM |
| Aircraft | A20N/M-SDE2E3FGHIRWXY/LB1 |
Departure
| Time | 2026-04-28 19:48 |
|---|---|
| Airport | Esenboğa International Airport (LTAC) |
Arrival
| Time | 2026-04-28 20:51 |
|---|---|
| Airport | Şanlıurfa GAP Airport (LTCS) |
| Time | Latitude | Longitude | Altitude | Speed | Heading |
|---|---|---|---|---|---|
| 2026-04-28 19:05 | 40.11416 | 32.98878 | 3125 ft | 0 kts | 127° |
| 2026-04-28 19:32 | 40.11417 | 32.98878 | 3124 ft | 0 kts | 127° |
| 2026-04-28 19:32 | 40.11417 | 32.98876 | 3124 ft | 1 kts | 127° |
| 2026-04-28 19:32 | 40.11427 | 32.98860 | 3124 ft | 2 kts | 127° |
| 2026-04-28 19:33 | 40.11435 | 32.98845 | 3123 ft | 2 kts | 127° |
| 2026-04-28 19:33 | 40.11445 | 32.98829 | 3123 ft | 2 kts | 123° |
| 2026-04-28 19:33 | 40.11448 | 32.98810 | 3123 ft | 2 kts | 84° |
| 2026-04-28 19:33 | 40.11443 | 32.98792 | 3122 ft | 2 kts | 51° |
| 2026-04-28 19:34 | 40.11431 | 32.98779 | 3122 ft | 2 kts | 31° |
| 2026-04-28 19:34 | 40.11419 | 32.98768 | 3122 ft | 2 kts | 38° |
| 2026-04-28 19:34 | 40.11412 | 32.98761 | 3122 ft | 0 kts | 36° |
| 2026-04-28 19:40 | 40.11414 | 32.98763 | 3122 ft | 0 kts | 36° |
| 2026-04-28 19:40 | 40.11418 | 32.98767 | 3122 ft | 0 kts | 36° |
| 2026-04-28 19:41 | 40.11420 | 32.98768 | 3122 ft | 1 kts | 36° |
| 2026-04-28 19:42 | 40.11455 | 32.98801 | 3123 ft | 9 kts | 37° |
| 2026-04-28 19:42 | 40.11525 | 32.98871 | 3125 ft | 15 kts | 39° |
| 2026-04-28 19:42 | 40.11589 | 32.98941 | 3128 ft | 9 kts | 27° |
| 2026-04-28 19:42 | 40.11630 | 32.98935 | 3128 ft | 9 kts | 317° |
| 2026-04-28 19:43 | 40.11691 | 32.98827 | 3125 ft | 10 kts | 306° |
| 2026-04-28 19:43 | 40.11734 | 32.98751 | 3123 ft | 11 kts | 307° |
| 2026-04-28 19:43 | 40.11780 | 32.98673 | 3122 ft | 11 kts | 308° |
| 2026-04-28 19:43 | 40.11816 | 32.98608 | 3122 ft | 0 kts | 306° |
| 2026-04-28 19:44 | 40.11820 | 32.98603 | 3122 ft | 1 kts | 306° |
| 2026-04-28 19:45 | 40.11828 | 32.98588 | 3122 ft | 0 kts | 308° |
| 2026-04-28 19:45 | 40.11831 | 32.98583 | 3122 ft | 1 kts | 308° |
| 2026-04-28 19:46 | 40.11843 | 32.98563 | 3122 ft | 3 kts | 307° |
| 2026-04-28 19:46 | 40.11861 | 32.98529 | 3121 ft | 5 kts | 304° |
| 2026-04-28 19:46 | 40.11890 | 32.98487 | 3121 ft | 6 kts | 335° |
| 2026-04-28 19:46 | 40.11931 | 32.98508 | 3122 ft | 3 kts | 36° |
| 2026-04-28 19:47 | 40.11932 | 32.98508 | 3122 ft | 0 kts | 36° |
| 2026-04-28 19:47 | 40.12043 | 32.98618 | 3123 ft | 51 kts | 36° |
| 2026-04-28 19:47 | 40.12526 | 32.99079 | 3124 ft | 118 kts | 36° |
| 2026-04-28 19:48 | 40.13345 | 32.99859 | 3146 ft | 167 kts | 34° |
| 2026-04-28 19:48 | 40.14336 | 33.00775 | 3508 ft | 181 kts | 35° |
| 2026-04-28 19:48 | 40.15367 | 33.01769 | 4021 ft | 188 kts | 36° |
| 2026-04-28 19:48 | 40.16433 | 33.02819 | 4618 ft | 197 kts | 36° |
| 2026-04-28 19:49 | 40.17532 | 33.03931 | 5198 ft | 204 kts | 38° |
| 2026-04-28 19:49 | 40.18641 | 33.05190 | 5589 ft | 221 kts | 40° |
| 2026-04-28 19:49 | 40.19820 | 33.06591 | 5907 ft | 242 kts | 48° |
| 2026-04-28 19:49 | 40.20613 | 33.08601 | 6445 ft | 256 kts | 78° |
| 2026-04-28 19:50 | 40.19703 | 33.13055 | 7635 ft | 279 kts | 129° |
| 2026-04-28 19:50 | 40.18439 | 33.15047 | 8326 ft | 287 kts | 129° |
| 2026-04-28 19:50 | 40.17182 | 33.17060 | 9113 ft | 291 kts | 129° |
| 2026-04-28 19:51 | 40.15918 | 33.19117 | 9897 ft | 295 kts | 129° |
| 2026-04-28 19:51 | 40.14620 | 33.21248 | 10599 ft | 302 kts | 129° |
| 2026-04-28 19:51 | 40.13287 | 33.23445 | 11016 ft | 320 kts | 129° |
| 2026-04-28 19:51 | 40.11881 | 33.25766 | 11501 ft | 334 kts | 128° |
| 2026-04-28 19:52 | 40.10437 | 33.28151 | 12227 ft | 339 kts | 128° |
| 2026-04-28 19:52 | 40.08960 | 33.30591 | 12987 ft | 343 kts | 128° |
| 2026-04-28 19:52 | 40.07484 | 33.33030 | 13698 ft | 348 kts | 128° |
| 2026-04-28 19:52 | 40.05970 | 33.35533 | 14441 ft | 352 kts | 128° |
| 2026-04-28 19:53 | 40.04456 | 33.38031 | 15134 ft | 356 kts | 128° |
| 2026-04-28 19:53 | 40.02916 | 33.40570 | 15828 ft | 360 kts | 128° |
| 2026-04-28 19:53 | 40.01385 | 33.43179 | 16512 ft | 364 kts | 125° |
| 2026-04-28 19:53 | 39.99950 | 33.45899 | 17205 ft | 368 kts | 124° |
| 2026-04-28 19:54 | 39.98523 | 33.48651 | 17858 ft | 371 kts | 123° |
| 2026-04-28 19:54 | 39.97059 | 33.51479 | 18521 ft | 375 kts | 123° |
| 2026-04-28 19:54 | 39.95608 | 33.54278 | 19168 ft | 378 kts | 123° |
| 2026-04-28 19:54 | 39.94132 | 33.57117 | 19792 ft | 382 kts | 123° |
| 2026-04-28 19:55 | 39.92647 | 33.59971 | 20406 ft | 385 kts | 123° |
| 2026-04-28 19:55 | 39.91124 | 33.62894 | 21009 ft | 389 kts | 123° |
| 2026-04-28 19:55 | 39.89600 | 33.65813 | 21592 ft | 392 kts | 124° |
| 2026-04-28 19:55 | 39.88072 | 33.68740 | 22149 ft | 396 kts | 124° |
| 2026-04-28 19:56 | 39.86511 | 33.71726 | 22716 ft | 399 kts | 124° |
| 2026-04-28 19:56 | 39.84949 | 33.74709 | 23255 ft | 402 kts | 124° |
| 2026-04-28 19:56 | 39.83377 | 33.77711 | 23790 ft | 406 kts | 124° |
| 2026-04-28 19:56 | 39.81791 | 33.80736 | 24306 ft | 409 kts | 124° |
| 2026-04-28 19:57 | 39.80170 | 33.83825 | 24823 ft | 413 kts | 124° |
| 2026-04-28 19:57 | 39.78610 | 33.86961 | 25294 ft | 417 kts | 120° |
| 2026-04-28 19:57 | 39.77258 | 33.90281 | 25774 ft | 419 kts | 115° |
| 2026-04-28 19:57 | 39.76138 | 33.93772 | 26237 ft | 422 kts | 110° |
| 2026-04-28 19:58 | 39.75113 | 33.97374 | 26689 ft | 425 kts | 109° |
| 2026-04-28 19:58 | 39.74101 | 34.01003 | 27122 ft | 428 kts | 109° |
| 2026-04-28 19:58 | 39.73080 | 34.04654 | 27527 ft | 431 kts | 109° |
| 2026-04-28 19:58 | 39.72045 | 34.08336 | 27929 ft | 435 kts | 110° |
| 2026-04-28 19:59 | 39.71005 | 34.12017 | 28345 ft | 437 kts | 110° |
| 2026-04-28 19:59 | 39.69949 | 34.15741 | 28718 ft | 440 kts | 110° |
| 2026-04-28 19:59 | 39.68880 | 34.19496 | 29089 ft | 443 kts | 110° |
| 2026-04-28 19:59 | 39.67820 | 34.23214 | 29454 ft | 446 kts | 110° |
| 2026-04-28 20:00 | 39.66736 | 34.27004 | 29798 ft | 449 kts | 110° |
| 2026-04-28 20:00 | 39.65640 | 34.30830 | 30147 ft | 452 kts | 110° |
| 2026-04-28 20:00 | 39.64553 | 34.34622 | 30504 ft | 454 kts | 110° |
| 2026-04-28 20:00 | 39.63444 | 34.38488 | 30942 ft | 453 kts | 110° |
| 2026-04-28 20:01 | 39.62347 | 34.42308 | 31388 ft | 452 kts | 110° |
| 2026-04-28 20:01 | 39.61253 | 34.46113 | 31829 ft | 450 kts | 110° |
| 2026-04-28 20:01 | 39.60155 | 34.49917 | 32250 ft | 449 kts | 110° |
| 2026-04-28 20:01 | 39.59063 | 34.53705 | 32641 ft | 448 kts | 111° |
| 2026-04-28 20:02 | 39.57975 | 34.57468 | 33021 ft | 447 kts | 111° |
| 2026-04-28 20:02 | 39.56882 | 34.61241 | 33389 ft | 446 kts | 111° |
| 2026-04-28 20:02 | 39.55801 | 34.64968 | 33744 ft | 446 kts | 111° |
| 2026-04-28 20:02 | 39.54708 | 34.68732 | 34087 ft | 445 kts | 112° |
| 2026-04-28 20:03 | 39.53616 | 34.72485 | 34418 ft | 444 kts | 112° |
| 2026-04-28 20:03 | 39.52529 | 34.76219 | 34714 ft | 443 kts | 112° |
| 2026-04-28 20:03 | 39.51445 | 34.79934 | 34977 ft | 442 kts | 112° |
| 2026-04-28 20:03 | 39.50370 | 34.83614 | 35206 ft | 442 kts | 112° |
| 2026-04-28 20:04 | 39.49268 | 34.87381 | 35415 ft | 442 kts | 112° |
| 2026-04-28 20:04 | 39.48203 | 34.91019 | 35993 ft | 430 kts | 112° |
| 2026-04-28 20:04 | 39.47152 | 34.94603 | 36590 ft | 419 kts | 112° |
| 2026-04-28 20:04 | 39.46123 | 34.98108 | 36966 ft | 415 kts | 112° |
| 2026-04-28 20:05 | 39.45100 | 35.01586 | 37041 ft | 420 kts | 112° |
| 2026-04-28 20:05 | 39.42985 | 35.08751 | 37050 ft | 431 kts | 112° |
| 2026-04-28 20:06 | 39.40815 | 35.16089 | 37052 ft | 442 kts | 112° |
| 2026-04-28 20:06 | 39.38623 | 35.23591 | 37054 ft | 451 kts | 111° |
| 2026-04-28 20:07 | 39.36436 | 35.31179 | 37057 ft | 453 kts | 111° |
| 2026-04-28 20:07 | 39.34222 | 35.38824 | 37061 ft | 453 kts | 112° |
| 2026-04-28 20:08 | 39.32008 | 35.46437 | 37065 ft | 453 kts | 112° |
| 2026-04-28 20:08 | 39.29799 | 35.54002 | 37069 ft | 453 kts | 112° |
| 2026-04-28 20:09 | 39.27565 | 35.61632 | 37071 ft | 453 kts | 112° |
| 2026-04-28 20:09 | 39.25343 | 35.69203 | 37079 ft | 453 kts | 112° |
| 2026-04-28 20:10 | 39.23112 | 35.76778 | 37091 ft | 453 kts | 112° |
| 2026-04-28 20:10 | 39.20876 | 35.84346 | 37087 ft | 452 kts | 112° |
| 2026-04-28 20:11 | 39.18643 | 35.91882 | 37077 ft | 452 kts | 112° |
| 2026-04-28 20:11 | 39.16395 | 35.99443 | 37075 ft | 452 kts | 112° |
| 2026-04-28 20:12 | 39.14101 | 36.06966 | 37080 ft | 452 kts | 114° |
| 2026-04-28 20:12 | 39.11697 | 36.14411 | 37083 ft | 451 kts | 114° |
| 2026-04-28 20:13 | 39.09282 | 36.21878 | 37085 ft | 451 kts | 114° |
| 2026-04-28 20:13 | 39.06882 | 36.29297 | 37084 ft | 451 kts | 114° |
| 2026-04-28 20:14 | 39.04467 | 36.36754 | 37087 ft | 450 kts | 114° |
| 2026-04-28 20:14 | 39.02056 | 36.44182 | 37094 ft | 450 kts | 114° |
| 2026-04-28 20:15 | 38.99644 | 36.51595 | 37101 ft | 450 kts | 114° |
| 2026-04-28 20:15 | 38.97217 | 36.59039 | 37095 ft | 451 kts | 114° |
| 2026-04-28 20:16 | 38.94796 | 36.66440 | 37102 ft | 451 kts | 115° |
| 2026-04-28 20:16 | 38.92372 | 36.73835 | 37099 ft | 450 kts | 115° |
| 2026-04-28 20:17 | 38.89925 | 36.81274 | 37097 ft | 449 kts | 115° |
| 2026-04-28 20:17 | 38.87482 | 36.88684 | 37100 ft | 449 kts | 114° |
| 2026-04-28 20:18 | 38.85268 | 36.96171 | 37106 ft | 449 kts | 114° |
| 2026-04-28 20:18 | 38.82786 | 37.03508 | 37111 ft | 447 kts | 116° |
| 2026-04-28 20:19 | 38.80234 | 37.10781 | 36992 ft | 448 kts | 116° |
| 2026-04-28 20:19 | 38.78980 | 37.14443 | 36726 ft | 446 kts | 115° |
| 2026-04-28 20:19 | 38.77758 | 37.18074 | 36434 ft | 443 kts | 115° |
| 2026-04-28 20:19 | 38.76553 | 37.21679 | 36155 ft | 440 kts | 115° |
| 2026-04-28 20:20 | 38.75353 | 37.25274 | 35938 ft | 438 kts | 115° |
| 2026-04-28 20:20 | 38.74163 | 37.28830 | 35723 ft | 438 kts | 115° |
| 2026-04-28 20:20 | 38.72953 | 37.32446 | 35507 ft | 438 kts | 115° |
| 2026-04-28 20:20 | 38.71761 | 37.36004 | 35296 ft | 438 kts | 115° |
| 2026-04-28 20:21 | 38.70563 | 37.39576 | 35081 ft | 438 kts | 115° |
| 2026-04-28 20:21 | 38.69367 | 37.43137 | 34866 ft | 437 kts | 115° |
| 2026-04-28 20:21 | 38.68165 | 37.46717 | 34648 ft | 438 kts | 115° |
| 2026-04-28 20:21 | 38.66965 | 37.50285 | 34427 ft | 438 kts | 115° |
| 2026-04-28 20:22 | 38.65761 | 37.53861 | 34186 ft | 438 kts | 115° |
| 2026-04-28 20:22 | 38.64543 | 37.57476 | 33925 ft | 438 kts | 114° |
| 2026-04-28 20:22 | 38.63334 | 37.61059 | 33581 ft | 439 kts | 114° |
| 2026-04-28 20:22 | 38.62127 | 37.64629 | 33112 ft | 440 kts | 114° |
| 2026-04-28 20:23 | 38.60915 | 37.68211 | 32515 ft | 441 kts | 115° |
| 2026-04-28 20:23 | 38.59689 | 37.71830 | 31845 ft | 443 kts | 115° |
| 2026-04-28 20:23 | 38.58468 | 37.75429 | 31143 ft | 445 kts | 115° |
| 2026-04-28 20:23 | 38.57637 | 37.77878 | 30651 ft | 447 kts | 115° |
| 2026-04-28 20:24 | 38.55999 | 37.82698 | 29764 ft | 447 kts | 114° |
| 2026-04-28 20:24 | 38.54759 | 37.86343 | 29265 ft | 442 kts | 114° |
| 2026-04-28 20:24 | 38.53538 | 37.89929 | 28768 ft | 438 kts | 114° |
| 2026-04-28 20:24 | 38.52334 | 37.93460 | 28296 ft | 433 kts | 114° |
| 2026-04-28 20:25 | 38.51132 | 37.96980 | 27821 ft | 429 kts | 114° |
| 2026-04-28 20:25 | 38.49939 | 38.00467 | 27343 ft | 425 kts | 114° |
| 2026-04-28 20:25 | 38.48761 | 38.03906 | 26879 ft | 421 kts | 114° |
| 2026-04-28 20:25 | 38.47577 | 38.07310 | 26398 ft | 418 kts | 117° |
| 2026-04-28 20:26 | 38.45926 | 38.10337 | 25879 ft | 412 kts | 136° |
| 2026-04-28 20:26 | 38.43653 | 38.12488 | 25398 ft | 404 kts | 155° |
| 2026-04-28 20:26 | 38.41065 | 38.13830 | 24938 ft | 399 kts | 161° |
| 2026-04-28 20:26 | 38.38465 | 38.15078 | 24447 ft | 397 kts | 160° |
| 2026-04-28 20:27 | 38.35908 | 38.16322 | 23986 ft | 395 kts | 160° |
| 2026-04-28 20:27 | 38.33326 | 38.17579 | 23530 ft | 392 kts | 160° |
| 2026-04-28 20:27 | 38.30788 | 38.18810 | 23081 ft | 389 kts | 160° |
| 2026-04-28 20:27 | 38.28271 | 38.20028 | 22644 ft | 386 kts | 160° |
| 2026-04-28 20:28 | 38.25766 | 38.21237 | 22215 ft | 383 kts | 160° |
| 2026-04-28 20:28 | 38.23219 | 38.22164 | 21746 ft | 380 kts | 174° |
| 2026-04-28 20:28 | 38.20611 | 38.22049 | 21299 ft | 375 kts | 194° |
| 2026-04-28 20:28 | 38.18217 | 38.20847 | 20861 ft | 370 kts | 213° |
| 2026-04-28 20:29 | 38.16303 | 38.18680 | 20413 ft | 366 kts | 233° |
| 2026-04-28 20:29 | 38.15131 | 38.15845 | 19967 ft | 363 kts | 254° |
| 2026-04-28 20:29 | 38.14831 | 38.12708 | 19531 ft | 360 kts | 275° |
| 2026-04-28 20:29 | 38.15429 | 38.09668 | 19082 ft | 358 kts | 295° |
| 2026-04-28 20:30 | 38.16848 | 38.07106 | 18649 ft | 356 kts | 316° |
| 2026-04-28 20:30 | 38.18919 | 38.05361 | 18231 ft | 355 kts | 337° |
| 2026-04-28 20:30 | 38.21310 | 38.04699 | 17809 ft | 355 kts | 358° |
| 2026-04-28 20:30 | 38.23728 | 38.05191 | 17390 ft | 354 kts | 19° |
| 2026-04-28 20:31 | 38.25874 | 38.06726 | 17188 ft | 355 kts | 40° |
| 2026-04-28 20:31 | 38.27446 | 38.09132 | 16968 ft | 356 kts | 61° |
| 2026-04-28 20:31 | 38.28227 | 38.12083 | 16716 ft | 356 kts | 82° |
| 2026-04-28 20:31 | 38.28124 | 38.15186 | 16489 ft | 356 kts | 103° |
| 2026-04-28 20:32 | 38.27156 | 38.18051 | 16220 ft | 355 kts | 124° |
| 2026-04-28 20:32 | 38.25434 | 38.20310 | 15941 ft | 352 kts | 144° |
| 2026-04-28 20:32 | 38.23276 | 38.21687 | 15594 ft | 345 kts | 158° |
| 2026-04-28 20:32 | 38.21056 | 38.22765 | 15267 ft | 339 kts | 159° |
| 2026-04-28 20:33 | 38.18873 | 38.23810 | 14954 ft | 333 kts | 159° |
| 2026-04-28 20:33 | 38.16738 | 38.24842 | 14705 ft | 325 kts | 158° |
| 2026-04-28 20:33 | 38.14679 | 38.25850 | 14691 ft | 309 kts | 158° |
| 2026-04-28 20:33 | 38.12693 | 38.26828 | 14693 ft | 304 kts | 158° |
| 2026-04-28 20:34 | 38.10682 | 38.27825 | 14704 ft | 315 kts | 158° |
| 2026-04-28 20:34 | 38.08564 | 38.28877 | 14706 ft | 340 kts | 158° |
| 2026-04-28 20:34 | 38.06339 | 38.29982 | 14704 ft | 346 kts | 158° |
| 2026-04-28 20:34 | 38.04089 | 38.31099 | 14700 ft | 348 kts | 158° |
| 2026-04-28 20:35 | 38.01808 | 38.32230 | 14834 ft | 349 kts | 158° |
| 2026-04-28 20:35 | 37.99534 | 38.33360 | 15002 ft | 350 kts | 158° |
| 2026-04-28 20:35 | 37.97266 | 38.34484 | 15171 ft | 352 kts | 158° |
| 2026-04-28 20:35 | 37.94994 | 38.35611 | 15341 ft | 352 kts | 158° |
| 2026-04-28 20:36 | 37.92687 | 38.36754 | 15511 ft | 353 kts | 158° |
| 2026-04-28 20:36 | 37.90393 | 38.37889 | 15526 ft | 355 kts | 158° |
| 2026-04-28 20:36 | 37.88076 | 38.39034 | 15212 ft | 349 kts | 158° |
| 2026-04-28 20:36 | 37.85840 | 38.40138 | 14910 ft | 342 kts | 158° |
| 2026-04-28 20:37 | 37.83641 | 38.41223 | 14555 ft | 336 kts | 158° |
| 2026-04-28 20:37 | 37.81473 | 38.42293 | 14208 ft | 331 kts | 158° |
| 2026-04-28 20:37 | 37.79361 | 38.43335 | 13859 ft | 326 kts | 157° |
| 2026-04-28 20:37 | 37.77259 | 38.44371 | 13472 ft | 317 kts | 157° |
| 2026-04-28 20:38 | 37.75225 | 38.45374 | 12903 ft | 309 kts | 157° |
| 2026-04-28 20:38 | 37.73317 | 38.46541 | 12399 ft | 298 kts | 145° |
| 2026-04-28 20:38 | 37.71724 | 38.48106 | 12005 ft | 293 kts | 133° |
| 2026-04-28 20:38 | 37.70352 | 38.50034 | 11589 ft | 292 kts | 127° |
| 2026-04-28 20:39 | 37.69089 | 38.51986 | 11212 ft | 290 kts | 127° |
| 2026-04-28 20:39 | 37.67805 | 38.53982 | 10849 ft | 290 kts | 127° |
| 2026-04-28 20:39 | 37.66544 | 38.55923 | 10471 ft | 289 kts | 127° |
| 2026-04-28 20:39 | 37.65276 | 38.57875 | 10272 ft | 284 kts | 125° |
| 2026-04-28 20:40 | 37.64075 | 38.59875 | 10162 ft | 285 kts | 124° |
| 2026-04-28 20:40 | 37.62898 | 38.61866 | 10007 ft | 281 kts | 124° |
| 2026-04-28 20:40 | 37.61736 | 38.63815 | 9786 ft | 275 kts | 127° |
| 2026-04-28 20:40 | 37.60276 | 38.65353 | 9511 ft | 275 kts | 154° |
| 2026-04-28 20:41 | 37.58452 | 38.65896 | 9169 ft | 269 kts | 181° |
| 2026-04-28 20:41 | 37.56638 | 38.65577 | 8803 ft | 261 kts | 189° |
| 2026-04-28 20:41 | 37.54848 | 38.65290 | 8454 ft | 260 kts | 186° |
| 2026-04-28 20:41 | 37.53061 | 38.65087 | 8147 ft | 255 kts | 185° |
| 2026-04-28 20:42 | 37.51327 | 38.64900 | 7802 ft | 245 kts | 185° |
| 2026-04-28 20:42 | 37.49667 | 38.64714 | 7523 ft | 233 kts | 186° |
| 2026-04-28 20:42 | 37.48078 | 38.64530 | 7282 ft | 226 kts | 186° |
| 2026-04-28 20:42 | 37.46531 | 38.64346 | 7025 ft | 223 kts | 186° |
| 2026-04-28 20:43 | 37.44986 | 38.64161 | 6808 ft | 220 kts | 186° |
| 2026-04-28 20:43 | 37.43502 | 38.63983 | 6640 ft | 210 kts | 186° |
| 2026-04-28 20:43 | 37.42061 | 38.63811 | 6336 ft | 203 kts | 186° |
| 2026-04-28 20:43 | 37.40693 | 38.63649 | 6015 ft | 195 kts | 184° |
| 2026-04-28 20:44 | 37.39386 | 38.63830 | 5767 ft | 184 kts | 161° |
| 2026-04-28 20:44 | 37.38281 | 38.64580 | 5738 ft | 182 kts | 139° |
| 2026-04-28 20:44 | 37.37381 | 38.65700 | 5732 ft | 182 kts | 131° |
| 2026-04-28 20:44 | 37.36539 | 38.66886 | 5710 ft | 181 kts | 130° |
| 2026-04-28 20:45 | 37.35701 | 38.68073 | 5682 ft | 181 kts | 130° |
| 2026-04-28 20:45 | 37.34860 | 38.69248 | 5633 ft | 180 kts | 130° |
| 2026-04-28 20:45 | 37.34012 | 38.70417 | 5591 ft | 181 kts | 131° |
| 2026-04-28 20:45 | 37.33172 | 38.71569 | 5493 ft | 180 kts | 131° |
| 2026-04-28 20:46 | 37.32324 | 38.72727 | 5394 ft | 180 kts | 131° |
| 2026-04-28 20:46 | 37.31653 | 38.74038 | 5213 ft | 176 kts | 97° |
| 2026-04-28 20:46 | 37.31946 | 38.75425 | 5111 ft | 171 kts | 47° |
| 2026-04-28 20:46 | 37.32839 | 38.76411 | 4885 ft | 166 kts | 38° |
| 2026-04-28 20:47 | 37.33690 | 38.77327 | 4601 ft | 159 kts | 40° |
| 2026-04-28 20:47 | 37.34489 | 38.78237 | 4398 ft | 150 kts | 41° |
| 2026-04-28 20:47 | 37.35223 | 38.79068 | 4271 ft | 139 kts | 39° |
| 2026-04-28 20:47 | 37.35969 | 38.79843 | 4269 ft | 139 kts | 40° |
| 2026-04-28 20:48 | 37.36694 | 38.80650 | 4270 ft | 139 kts | 41° |
| 2026-04-28 20:48 | 37.37415 | 38.81474 | 4243 ft | 139 kts | 41° |
| 2026-04-28 20:48 | 37.38127 | 38.82288 | 4065 ft | 138 kts | 41° |
| 2026-04-28 20:48 | 37.38837 | 38.83095 | 3889 ft | 137 kts | 41° |
| 2026-04-28 20:49 | 37.39546 | 38.83897 | 3711 ft | 137 kts | 42° |
| 2026-04-28 20:49 | 37.40251 | 38.84693 | 3533 ft | 136 kts | 42° |
| 2026-04-28 20:49 | 37.40953 | 38.85476 | 3353 ft | 135 kts | 41° |
| 2026-04-28 20:49 | 37.41654 | 38.86261 | 3177 ft | 135 kts | 43° |
| 2026-04-28 20:50 | 37.42342 | 38.87055 | 3003 ft | 134 kts | 43° |
| 2026-04-28 20:50 | 37.43041 | 38.87854 | 2825 ft | 134 kts | 42° |
| 2026-04-28 20:50 | 37.43723 | 38.88635 | 2691 ft | 129 kts | 39° |
| 2026-04-28 20:50 | 37.44302 | 38.89270 | 2704 ft | 85 kts | 43° |
| 2026-04-28 20:51 | 37.44595 | 38.89601 | 2703 ft | 23 kts | 41° |
| 2026-04-28 20:51 | 37.44627 | 38.89711 | 2701 ft | 13 kts | 114° |
| 2026-04-28 20:51 | 37.44559 | 38.89811 | 2698 ft | 16 kts | 133° |
| 2026-04-28 20:51 | 37.44504 | 38.89887 | 2694 ft | 16 kts | 132° |
| 2026-04-28 20:52 | 37.44429 | 38.89997 | 2688 ft | 12 kts | 110° |
| 2026-04-28 20:52 | 37.44469 | 38.90081 | 2685 ft | 12 kts | 43° |
| 2026-04-28 20:52 | 37.44523 | 38.90145 | 2684 ft | 8 kts | 43° |
| 2026-04-28 20:52 | 37.44530 | 38.90192 | 2682 ft | 6 kts | 115° |
| 2026-04-28 20:53 | 37.44476 | 38.90268 | 2682 ft | 0 kts | 133° |